Portada
METAR-TAF:

METAR-TAF

Aeroports :

Alice Springs, Austràlia

latitud: 23-48S, longitud: 133-53E, altitud: 545 m

Observació

L'informe es va fer fa 24 minuts, a les 00:30 UTC
Vent 8 kt del Sud
Temperatura 22°C
Humitat 16%
Pressió 1018 hPa
Visibilitat 10 km o més
sense núvols per sota de 1500 mi sense presència de cumulonimbus.

METAR: YBAS 250030Z 18008KT CAVOK 22/M05 Q1018

Hora: 10:24 (00:54 UTC)

Pronòstic

L'informe es va fer fa 1 hora i 49 minuts, a les 23:05 UTC
Pronòstic vàlid del 25 a les 00 UTC al 26 a les 00 UTC
Vent 10 kt del Sud-Est
Visibilitat 10 km o més
sense núvols per sota de 1500 mi sense presència de cumulonimbus.
A partir de les 25 a les 1800 UTC
Vent 6 kt del Est
Visibilitat 10 km o més
sense núvols per sota de 1500 mi sense presència de cumulonimbus.

TAF: YBAS 242305Z 2500/2600 13010KT CAVOK FM251800 10006KT CAVOK

Observacions i pronòstics meteorològics de més de 4000 aeroports (METAR i TAF).

Les estacions disponibles són els punts grocs i vermells al mapa.

Posi el ratolí al punt desitjat per veure el nom de l'estació.

Feu clic per veure les observacions i els pronòstics meteorològics.

Per canviar el mapa: feu clic els botons verds amb una creu de color negre per apropar; al botó verd amb un guió per allunyar la imatge; o en les fletxes verdes per a mapes adjacents.


METAR-TAF: